createdAt,value
2022-10-01T00:01:21.622Z,11.75
2022-10-01T00:03:50.362Z,11.73
2022-10-01T00:06:22.201Z,11.69
2022-10-01T00:08:51.748Z,11.79
2022-10-01T00:11:23.213Z,11.60
2022-10-01T00:13:52.921Z,11.58
2022-10-01T00:16:25.811Z,11.42
2022-10-01T00:18:55.227Z,11.34
2022-10-01T00:21:28.408Z,11.34
2022-10-01T00:23:58.924Z,11.37
2022-10-01T00:26:30.515Z,11.27
2022-10-01T00:29:01.556Z,11.12
2022-10-01T00:31:31.149Z,11.25
2022-10-01T00:34:02.924Z,11.28
2022-10-01T00:36:34.279Z,11.22
2022-10-01T00:39:03.351Z,11.31
2022-10-01T00:41:35.623Z,11.35
2022-10-01T00:44:32.593Z,11.12
2022-10-01T00:47:08.808Z,11.09
2022-10-01T00:49:39.765Z,10.97
2022-10-01T00:52:14.697Z,10.91
2022-10-01T00:54:48.124Z,10.98
2022-10-01T00:57:21.979Z,10.85
2022-10-01T00:59:52.874Z,10.84
2022-10-01T01:02:21.695Z,10.83
2022-10-01T01:04:50.027Z,10.85
2022-10-01T01:07:20.621Z,10.85
2022-10-01T01:09:52.190Z,10.85
2022-10-01T01:12:42.212Z,10.76
2022-10-01T01:15:19.490Z,10.82
2022-10-01T01:18:00.567Z,10.82
2022-10-01T01:20:58.606Z,10.85
2022-10-01T01:24:07.339Z,10.87
2022-10-01T01:26:49.741Z,10.91
2022-10-01T01:29:26.806Z,10.85
2022-10-01T01:32:03.428Z,10.84
2022-10-01T01:34:34.417Z,10.87
2022-10-01T01:37:12.474Z,10.84
2022-10-01T01:39:46.116Z,10.78
2022-10-01T01:42:23.375Z,10.63
2022-10-01T01:44:56.607Z,10.67
2022-10-01T01:47:32.983Z,10.61
2022-10-01T01:50:04.477Z,10.65
2022-10-01T01:52:33.928Z,10.76
2022-10-01T01:55:08.599Z,10.62
2022-10-01T01:57:41.732Z,10.71
2022-10-01T02:00:14.271Z,10.78
2022-10-01T02:02:49.046Z,10.72
2022-10-01T02:05:22.528Z,10.87
2022-10-01T02:08:28.991Z,10.81
2022-10-01T02:11:17.544Z,10.88
2022-10-01T02:13:56.628Z,10.89
2022-10-01T02:16:37.563Z,10.84
2022-10-01T02:19:13.444Z,10.93
2022-10-01T02:21:50.300Z,10.94
2022-10-01T02:24:29.012Z,10.81
2022-10-01T02:26:58.587Z,10.82
2022-10-01T02:29:28.370Z,10.86
2022-10-01T02:31:58.558Z,10.78
2022-10-01T02:34:32.009Z,10.86
2022-10-01T02:37:05.344Z,10.81
2022-10-01T02:39:35.886Z,10.86
2022-10-01T02:42:06.957Z,10.88
2022-10-01T02:44:40.302Z,10.92
2022-10-01T02:47:16.965Z,10.99
2022-10-01T02:49:46.048Z,10.93
2022-10-01T02:52:22.949Z,10.81
2022-10-01T02:54:58.026Z,10.89
2022-10-01T02:57:29.778Z,10.77
2022-10-01T03:00:00.494Z,10.91
2022-10-01T03:02:33.037Z,10.81
2022-10-01T03:05:01.977Z,10.72
2022-10-01T03:07:34.613Z,10.74
2022-10-01T03:10:03.308Z,10.74
2022-10-01T03:12:32.141Z,10.65
2022-10-01T03:15:00.483Z,10.79
2022-10-01T03:17:30.627Z,10.68
2022-10-01T03:19:58.932Z,10.67
2022-10-01T03:22:27.207Z,10.59
2022-10-01T03:24:55.640Z,10.64
2022-10-01T03:27:24.422Z,10.64
2022-10-01T03:29:53.081Z,10.67
2022-10-01T03:32:21.473Z,10.71
2022-10-01T03:34:51.355Z,10.71
2022-10-01T03:37:19.700Z,10.84
2022-10-01T03:39:48.125Z,10.82
2022-10-01T03:42:16.662Z,10.85
2022-10-01T03:44:45.259Z,10.86
2022-10-01T03:47:13.914Z,10.88
2022-10-01T03:49:42.293Z,10.77
2022-10-01T03:52:12.096Z,10.73
2022-10-01T03:54:40.721Z,10.69
2022-10-01T03:57:09.312Z,10.70
2022-10-01T03:59:37.592Z,10.75
2022-10-01T04:02:06.680Z,10.73
2022-10-01T04:04:35.087Z,10.75
2022-10-01T04:07:03.350Z,10.81
2022-10-01T04:09:33.218Z,10.89
2022-10-01T04:12:01.909Z,10.88
2022-10-01T04:14:30.299Z,10.86
2022-10-01T04:16:58.993Z,10.93
2022-10-01T04:19:27.239Z,10.97
2022-10-01T04:21:55.508Z,10.89
2022-10-01T04:24:23.775Z,10.90
2022-10-01T04:26:53.874Z,10.92
2022-10-01T04:29:22.450Z,10.96
2022-10-01T04:31:51.021Z,11.01
2022-10-01T04:34:39.697Z,11.05
2022-10-01T04:37:07.948Z,11.07
2022-10-01T04:39:36.473Z,10.97
2022-10-01T04:42:06.671Z,11.04
2022-10-01T04:44:35.506Z,11.06
2022-10-01T04:47:04.225Z,11.01
2022-10-01T04:49:33.422Z,11.07
2022-10-01T04:52:02.005Z,11.09
2022-10-01T04:54:30.753Z,11.11
2022-10-01T04:56:59.299Z,11.17
2022-10-01T04:59:29.148Z,11.13
2022-10-01T05:01:57.782Z,11.16
2022-10-01T05:04:27.231Z,11.15
2022-10-01T05:06:56.220Z,11.17
2022-10-01T05:09:24.911Z,11.26
2022-10-01T05:11:53.535Z,11.35
2022-10-01T05:14:22.202Z,11.44
2022-10-01T05:16:52.139Z,11.44
2022-10-01T05:19:21.724Z,11.52
2022-10-01T05:21:52.059Z,11.52
2022-10-01T05:24:20.302Z,11.52
2022-10-01T05:26:48.544Z,11.40
2022-10-01T05:29:18.597Z,11.39
2022-10-01T05:31:47.388Z,11.40
2022-10-01T05:34:17.092Z,11.38
2022-10-01T05:36:45.377Z,11.46
2022-10-01T05:39:13.851Z,11.55
2022-10-01T05:41:42.308Z,11.61
2022-10-01T05:44:10.733Z,11.64
2022-10-01T05:46:39.108Z,11.62
2022-10-01T05:49:08.409Z,11.60
2022-10-01T05:51:38.136Z,11.65
2022-10-01T05:54:06.448Z,11.63
2022-10-01T05:56:35.119Z,11.55
2022-10-01T05:59:03.550Z,11.51
2022-10-01T06:01:33.017Z,11.56
2022-10-01T06:04:02.376Z,11.50
2022-10-01T06:06:30.941Z,11.51
2022-10-01T06:09:00.949Z,11.51
2022-10-01T06:11:29.639Z,11.52
2022-10-01T06:13:57.908Z,11.42
2022-10-01T06:16:26.674Z,11.40
2022-10-01T06:18:57.594Z,11.45
2022-10-01T06:21:26.049Z,11.53
2022-10-01T06:23:54.915Z,11.44
2022-10-01T06:26:25.260Z,11.55
2022-10-01T06:28:54.045Z,11.51
2022-10-01T06:31:22.834Z,11.59
2022-10-01T06:33:51.166Z,11.68
2022-10-01T06:36:19.417Z,11.75
2022-10-01T06:38:49.610Z,11.82
2022-10-01T06:41:18.572Z,11.86
2022-10-01T06:43:50.845Z,11.90
2022-10-01T06:46:19.686Z,11.99
2022-10-01T06:48:48.223Z,11.98
2022-10-01T06:51:36.728Z,12.09
2022-10-01T06:54:05.252Z,12.08
2022-10-01T06:56:33.667Z,12.12
2022-10-01T06:59:03.688Z,12.12
2022-10-01T07:01:33.746Z,12.18
2022-10-01T07:04:03.024Z,12.22
2022-10-01T07:06:32.266Z,12.31
2022-10-01T07:09:00.622Z,12.36
2022-10-01T07:11:28.802Z,12.31
2022-10-01T07:13:57.575Z,12.33
2022-10-01T07:16:27.698Z,12.35
2022-10-01T07:18:56.165Z,12.43
2022-10-01T07:21:24.401Z,12.60
2022-10-01T07:23:52.944Z,12.53
2022-10-01T07:26:21.210Z,12.56
2022-10-01T07:28:49.525Z,12.58
2022-10-01T07:31:18.078Z,12.66
2022-10-01T07:33:48.173Z,12.66
2022-10-01T07:36:16.706Z,12.75
2022-10-01T07:38:45.866Z,12.73
2022-10-01T07:41:17.167Z,12.81
2022-10-01T07:43:47.981Z,12.74
2022-10-01T07:46:16.345Z,12.81
2022-10-01T07:48:46.277Z,12.89
2022-10-01T07:51:16.309Z,12.84
2022-10-01T07:53:45.160Z,12.80
2022-10-01T07:56:14.249Z,12.80
2022-10-01T07:58:43.344Z,12.94
2022-10-01T08:01:11.821Z,12.85
2022-10-01T08:03:40.160Z,13.03
2022-10-01T08:06:09.484Z,12.92
2022-10-01T08:08:39.043Z,13.01
2022-10-01T08:11:09.187Z,13.07
2022-10-01T08:13:38.224Z,13.01
2022-10-01T08:16:09.858Z,12.91
2022-10-01T08:18:40.523Z,12.84
2022-10-01T08:21:09.369Z,12.93
2022-10-01T08:23:39.143Z,13.02
2022-10-01T08:26:09.531Z,12.98
2022-10-01T08:28:37.920Z,13.02
2022-10-01T08:31:09.010Z,13.17
2022-10-01T08:33:38.041Z,13.31
2022-10-01T08:36:08.522Z,13.24
2022-10-01T08:38:40.164Z,13.27
2022-10-01T08:41:24.226Z,13.26
2022-10-01T08:43:53.334Z,13.26
2022-10-01T08:46:28.240Z,13.33
2022-10-01T08:49:04.452Z,13.40
2022-10-01T08:51:38.825Z,13.52
2022-10-01T08:54:30.948Z,13.67
2022-10-01T08:57:03.444Z,13.62
2022-10-01T08:59:41.659Z,13.72
2022-10-01T09:02:23.643Z,14.11
2022-10-01T09:05:01.234Z,14.39
2022-10-01T09:08:02.077Z,14.47
2022-10-01T09:10:44.721Z,14.19
2022-10-01T09:13:59.801Z,14.16
2022-10-01T09:16:38.040Z,14.37
2022-10-01T09:19:31.830Z,14.43
2022-10-01T09:22:03.421Z,14.36
2022-10-01T09:24:46.987Z,14.55
2022-10-01T09:27:19.492Z,14.66
2022-10-01T09:29:52.711Z,14.47
2022-10-01T09:32:26.275Z,14.57
2022-10-01T09:34:57.219Z,14.54
2022-10-01T09:37:32.782Z,14.87
2022-10-01T09:40:15.661Z,15.00
2022-10-01T09:42:45.477Z,14.88
2022-10-01T09:45:15.169Z,14.75
2022-10-01T09:47:46.536Z,14.72
2022-10-01T09:50:21.498Z,14.47
2022-10-01T09:52:52.388Z,14.34
2022-10-01T09:55:32.398Z,14.04
2022-10-01T09:58:10.334Z,13.96
2022-10-01T10:00:41.152Z,13.97
2022-10-01T10:03:10.016Z,14.30
2022-10-01T10:05:48.091Z,14.53
2022-10-01T10:08:25.465Z,14.78
2022-10-01T10:11:00.422Z,14.75
2022-10-01T10:13:39.348Z,15.21
2022-10-01T10:16:15.292Z,15.40
2022-10-01T10:18:43.976Z,15.61
2022-10-01T10:21:19.568Z,15.38
2022-10-01T10:23:50.816Z,15.38
2022-10-01T10:26:32.279Z,15.72
2022-10-01T10:29:04.258Z,15.96
2022-10-01T10:31:42.175Z,16.00
2022-10-01T10:34:17.831Z,16.23
2022-10-01T10:36:47.964Z,16.08
2022-10-01T10:39:23.006Z,16.18
2022-10-01T10:41:53.020Z,16.26
2022-10-01T10:44:25.139Z,16.42
2022-10-01T10:46:59.880Z,16.27
2022-10-01T10:49:32.162Z,16.68
2022-10-01T10:52:02.761Z,16.95
2022-10-01T10:54:35.218Z,16.60
2022-10-01T10:57:21.120Z,16.78
2022-10-01T11:00:01.202Z,17.05
2022-10-01T11:02:31.679Z,16.78
2022-10-01T11:05:03.831Z,16.96
2022-10-01T11:07:33.313Z,17.23
2022-10-01T11:10:23.319Z,17.15
2022-10-01T11:13:15.102Z,17.06
2022-10-01T11:16:05.179Z,17.35
2022-10-01T11:18:58.406Z,17.44
2022-10-01T11:21:50.479Z,17.48
2022-10-01T11:25:00.916Z,17.32
2022-10-01T11:27:45.224Z,17.63
2022-10-01T11:30:21.319Z,17.75
2022-10-01T11:49:50.104Z,17.65
2022-10-01T11:52:32.565Z,17.46
2022-10-01T11:55:30.396Z,17.16
2022-10-01T11:58:24.454Z,17.43
2022-10-01T12:01:03.828Z,17.53
2022-10-01T12:03:43.615Z,17.74
2022-10-01T12:06:16.716Z,17.89
2022-10-01T12:08:54.929Z,18.02
2022-10-01T12:11:31.365Z,18.36
2022-10-01T12:14:05.776Z,17.92
2022-10-01T12:16:44.797Z,17.92
2022-10-01T12:19:21.726Z,17.94
2022-10-01T12:21:57.620Z,17.61
2022-10-01T12:24:32.029Z,17.21
2022-10-01T12:27:24.342Z,17.11
2022-10-01T12:30:01.457Z,16.98
2022-10-01T12:32:42.867Z,16.82
2022-10-01T12:35:28.347Z,17.34
2022-10-01T12:38:18.711Z,17.60
2022-10-01T12:40:52.432Z,17.81
2022-10-01T12:44:05.054Z,17.77
2022-10-01T12:46:41.573Z,17.89
2022-10-01T12:49:22.532Z,18.21
2022-10-01T12:52:01.256Z,18.14
2022-10-01T12:54:55.207Z,18.08
2022-10-01T12:57:44.001Z,17.86
2022-10-01T13:00:19.257Z,17.44
2022-10-01T13:03:26.186Z,17.69
2022-10-01T13:06:08.786Z,17.29
2022-10-01T13:08:54.659Z,17.00
2022-10-01T13:11:48.262Z,17.27
2022-10-01T13:14:19.238Z,17.28
2022-10-01T13:17:00.024Z,17.03
2022-10-01T13:19:38.071Z,17.33
2022-10-01T13:22:17.289Z,17.45
2022-10-01T13:24:52.134Z,17.78
2022-10-01T13:27:28.571Z,18.03
2022-10-01T13:30:01.215Z,18.23
2022-10-01T13:32:34.611Z,18.34
2022-10-01T13:35:23.089Z,18.36
2022-10-01T13:37:52.022Z,18.41
2022-10-01T13:40:30.479Z,18.54
2022-10-01T13:43:03.220Z,18.40
2022-10-01T13:45:40.964Z,18.01
2022-10-01T13:48:19.853Z,18.08
2022-10-01T13:51:04.408Z,18.50
2022-10-01T13:53:37.133Z,18.23
2022-10-01T13:56:07.208Z,17.87
2022-10-01T13:58:40.573Z,17.76
2022-10-01T14:01:39.092Z,17.76
2022-10-01T14:04:20.286Z,18.15
2022-10-01T14:06:54.702Z,18.70
2022-10-01T14:09:29.615Z,18.90
2022-10-01T14:12:21.951Z,18.80
2022-10-01T14:15:14.003Z,18.96
2022-10-01T14:17:44.922Z,18.42
2022-10-01T14:20:19.855Z,18.69
2022-10-01T14:23:06.313Z,18.32
2022-10-01T14:25:53.340Z,18.37
2022-10-01T14:29:04.936Z,18.49
2022-10-01T14:32:46.869Z,18.37
2022-10-01T14:35:30.018Z,18.33
2022-10-01T14:38:01.803Z,18.44
2022-10-01T14:40:40.421Z,18.47
2022-10-01T14:43:19.925Z,18.38
2022-10-01T14:45:58.026Z,18.21
2022-10-01T14:48:31.504Z,18.39
2022-10-01T14:51:02.317Z,18.57
2022-10-01T14:53:35.064Z,18.33
2022-10-01T14:56:08.927Z,18.53
2022-10-01T14:58:43.198Z,18.82
2022-10-01T15:01:20.207Z,18.68
2022-10-01T15:03:52.599Z,18.59
2022-10-01T15:06:24.185Z,18.82
2022-10-01T15:08:54.891Z,18.43
2022-10-01T15:11:26.194Z,18.33
2022-10-01T15:13:58.282Z,18.44
2022-10-01T15:16:29.129Z,18.71
2022-10-01T15:19:02.619Z,18.86
2022-10-01T15:21:37.761Z,18.44
2022-10-01T15:24:14.796Z,18.67
2022-10-01T15:26:43.104Z,18.59
2022-10-01T15:29:16.500Z,18.46
2022-10-01T15:31:46.502Z,18.19
2022-10-01T15:34:19.684Z,18.44
2022-10-01T15:36:49.978Z,18.44
2022-10-01T15:39:31.347Z,18.47
2022-10-01T15:42:03.595Z,18.23
2022-10-01T15:44:50.853Z,18.11
2022-10-01T15:47:34.995Z,18.20
2022-10-01T15:50:24.810Z,18.22
2022-10-01T15:53:02.097Z,18.15
2022-10-01T15:55:40.138Z,17.93
2022-10-01T15:58:16.656Z,17.53
2022-10-01T16:00:59.019Z,17.51
2022-10-01T16:03:32.813Z,17.26
2022-10-01T16:06:04.792Z,16.92
2022-10-01T16:08:40.335Z,16.91
2022-10-01T16:11:20.840Z,16.88
2022-10-01T16:13:51.442Z,16.84
2022-10-01T16:16:27.100Z,16.86
2022-10-01T16:19:00.119Z,16.78
2022-10-01T16:21:29.958Z,16.71
2022-10-01T16:23:58.662Z,16.66
2022-10-01T16:26:41.814Z,16.47
2022-10-01T16:29:31.209Z,16.50
2022-10-01T16:32:01.515Z,16.53
2022-10-01T16:34:30.212Z,16.42
2022-10-01T16:37:00.022Z,16.25
2022-10-01T16:39:28.605Z,16.20
2022-10-01T16:42:22.332Z,16.25
2022-10-01T16:44:45.481Z,16.04
2022-10-01T16:47:14.046Z,16.06
2022-10-01T16:49:42.559Z,15.97
2022-10-01T16:52:16.733Z,15.96
2022-10-01T16:54:47.414Z,16.11
2022-10-01T16:57:16.438Z,16.26
2022-10-01T16:59:44.929Z,16.03
2022-10-01T17:02:15.410Z,15.96
2022-10-01T17:04:44.103Z,15.90
2022-10-01T17:07:14.004Z,15.75
2022-10-01T17:09:42.378Z,15.68
2022-10-01T17:12:10.993Z,15.49
2022-10-01T17:14:39.371Z,15.55
2022-10-01T17:17:07.652Z,15.47
2022-10-01T17:19:36.229Z,15.43
2022-10-01T17:22:07.456Z,15.46
2022-10-01T17:24:37.113Z,15.44
2022-10-01T17:27:05.676Z,15.51
2022-10-01T17:29:34.044Z,15.27
2022-10-01T17:32:02.721Z,15.37
2022-10-01T17:34:31.245Z,15.27
2022-10-01T17:37:00.191Z,15.31
2022-10-01T17:39:28.633Z,15.29
2022-10-01T17:41:58.387Z,15.25
2022-10-01T17:44:26.783Z,15.28
2022-10-01T17:46:55.080Z,15.24
2022-10-01T17:49:23.641Z,15.20
2022-10-01T17:51:53.426Z,15.16
2022-10-01T17:54:22.079Z,15.19
2022-10-01T17:56:53.254Z,15.04
2022-10-01T17:59:23.048Z,15.05
2022-10-01T18:01:53.256Z,15.20
2022-10-01T18:04:22.125Z,15.10
2022-10-01T18:06:52.372Z,15.04
2022-10-01T18:09:21.909Z,15.10
2022-10-01T18:11:50.624Z,15.02
2022-10-01T18:14:18.998Z,14.97
2022-10-01T18:16:49.416Z,14.77
2022-10-01T18:22:13.542Z,14.58
2022-10-01T18:24:42.560Z,14.64
2022-10-01T18:27:10.795Z,14.58
2022-10-01T18:29:40.198Z,14.72
2022-10-01T18:32:17.791Z,14.49
2022-10-01T18:34:54.382Z,14.53
2022-10-01T18:37:37.731Z,14.26
2022-10-01T18:40:13.593Z,14.44
2022-10-01T18:42:49.965Z,14.50
2022-10-01T18:45:34.311Z,14.54
2022-10-01T18:48:36.953Z,14.31
2022-10-01T18:51:17.813Z,14.36
2022-10-01T18:54:05.317Z,14.42
2022-10-01T18:56:36.873Z,14.46
2022-10-01T18:59:55.245Z,14.51
2022-10-01T19:02:55.022Z,14.38
2022-10-01T19:06:09.687Z,14.22
2022-10-01T19:08:56.434Z,14.22
2022-10-01T19:11:36.003Z,14.13
2022-10-01T19:14:36.064Z,14.11
2022-10-01T19:17:19.188Z,14.09
2022-10-01T19:20:05.395Z,13.96
2022-10-01T19:22:51.061Z,13.80
2022-10-01T19:25:27.108Z,13.75
2022-10-01T19:28:08.687Z,13.68
2022-10-01T19:30:58.758Z,13.57
2022-10-01T19:33:27.533Z,13.75
2022-10-01T19:36:00.421Z,13.61
2022-10-01T19:38:38.060Z,13.52
2022-10-01T19:41:15.879Z,13.74
2022-10-01T19:43:49.331Z,13.76
2022-10-01T19:46:26.790Z,13.57
2022-10-01T19:49:02.042Z,13.62
2022-10-01T19:51:37.623Z,13.62
2022-10-01T19:54:16.912Z,13.55
2022-10-01T19:56:49.674Z,13.63
2022-10-01T19:59:21.122Z,13.56
2022-10-01T20:01:53.962Z,13.59
2022-10-01T20:04:31.796Z,13.54
2022-10-01T20:07:06.101Z,13.40
2022-10-01T20:09:45.132Z,13.38
2022-10-01T20:12:25.457Z,13.24
2022-10-01T20:15:10.594Z,13.34
2022-10-01T20:18:03.754Z,13.40
2022-10-01T20:20:41.478Z,13.36
2022-10-01T20:23:33.410Z,13.16
2022-10-01T20:26:16.589Z,13.05
2022-10-01T20:29:05.243Z,13.04
2022-10-01T20:31:42.406Z,13.23
2022-10-01T20:34:20.597Z,13.33
2022-10-01T20:36:58.364Z,13.22
2022-10-01T20:39:32.246Z,13.13
2022-10-01T20:42:03.605Z,13.32
2022-10-01T20:44:37.083Z,13.25
2022-10-01T20:47:13.595Z,13.23
2022-10-01T20:49:46.494Z,13.18
2022-10-01T20:52:28.388Z,13.19
2022-10-01T20:55:03.996Z,13.02
2022-10-01T20:57:39.075Z,13.13
2022-10-01T21:00:17.931Z,13.20
2022-10-01T21:02:55.108Z,13.12
2022-10-01T21:05:29.994Z,13.31
2022-10-01T21:08:05.134Z,13.28
2022-10-01T21:10:42.439Z,13.36
2022-10-01T21:13:25.657Z,13.32
2022-10-01T21:16:04.004Z,13.14
2022-10-01T21:18:45.306Z,13.16
2022-10-01T21:21:28.277Z,13.09
2022-10-01T21:24:17.985Z,13.01
2022-10-01T21:27:00.883Z,13.13
2022-10-01T21:30:04.947Z,13.00
2022-10-01T21:33:02.069Z,12.90
2022-10-01T21:35:43.503Z,12.94
2022-10-01T21:38:28.430Z,13.00
2022-10-01T21:41:33.473Z,13.10
2022-10-01T21:44:36.721Z,12.99
2022-10-01T21:47:10.259Z,13.07
2022-10-01T21:49:54.377Z,13.10
2022-10-01T21:52:39.025Z,13.21
2022-10-01T21:55:51.542Z,13.14
2022-10-01T21:58:38.840Z,13.25
2022-10-01T22:01:17.949Z,13.39
2022-10-01T22:03:54.091Z,13.56
2022-10-01T22:06:29.428Z,13.51
2022-10-01T22:09:14.634Z,13.51
2022-10-01T22:11:50.761Z,13.48
2022-10-01T22:14:22.521Z,13.42
2022-10-01T22:16:56.380Z,13.41
2022-10-01T22:19:30.890Z,13.41
2022-10-01T22:22:08.725Z,13.44
2022-10-01T22:24:44.847Z,13.48
2022-10-01T22:27:21.446Z,13.53
2022-10-01T22:29:56.296Z,13.49
2022-10-01T22:32:30.385Z,13.47
2022-10-01T22:35:05.314Z,13.40
2022-10-01T22:37:41.004Z,13.41
2022-10-01T22:40:16.805Z,13.47
2022-10-01T22:42:54.328Z,13.50
2022-10-01T22:45:35.400Z,13.56
2022-10-01T22:48:19.663Z,13.58
2022-10-01T22:51:09.398Z,13.68
2022-10-01T22:54:02.887Z,13.72
2022-10-01T22:56:39.186Z,13.68
2022-10-01T22:59:16.247Z,13.75
2022-10-01T23:01:57.376Z,13.75
2022-10-01T23:04:42.107Z,13.80
2022-10-01T23:07:21.785Z,13.77
2022-10-01T23:10:00.381Z,13.92
2022-10-01T23:12:39.090Z,13.90
2022-10-01T23:15:21.773Z,13.95
2022-10-01T23:17:59.789Z,14.04
2022-10-01T23:20:34.142Z,14.08
2022-10-01T23:23:29.754Z,14.05
2022-10-01T23:26:34.060Z,14.04
2022-10-01T23:29:21.604Z,14.06
2022-10-01T23:32:02.024Z,14.06
2022-10-01T23:34:43.619Z,14.13
2022-10-01T23:37:42.430Z,14.18
2022-10-01T23:40:15.625Z,14.29
2022-10-01T23:42:54.345Z,14.28
2022-10-01T23:45:30.441Z,14.25
2022-10-01T23:48:09.897Z,14.36
2022-10-01T23:50:46.758Z,14.43
2022-10-01T23:53:19.988Z,14.54
2022-10-01T23:56:16.065Z,14.56
2022-10-01T23:58:54.377Z,14.54
